Terminal Aerodrome Forecast
Issued by NWS

Home | Current Version | Previous Version | Text Only | Print | Product List | Glossary On
Versions: 1 2 3 4 5 6 7 8 9 10 11 12 13 14 15 16 17 18 19 20 21
000
FTUS46 KLOX 290543 CCA
TAFLGB
TAF COR
KLGB 290543Z 2906/3006 VRB03KT P6SM OVC020
     FM290800 VRB03KT P6SM OVC018
     FM291700 20006KT P6SM OVC022
     FM292300 29006KT P6SM SCT025
     FM300400 VRB03KT P6SM BKN012=

USA.gov is the U.S. government's official web portal to all federal, state and local government web resources and services.